createdAt,value
2017-08-08T00:00:48.452Z,0
2017-08-08T00:01:57.376Z,0
2017-08-08T00:03:06.278Z,0
2017-08-08T00:04:15.183Z,0
2017-08-08T00:05:24.105Z,0
2017-08-08T00:06:33.014Z,0
2017-08-08T00:07:41.939Z,0
2017-08-08T00:08:51.169Z,0
2017-08-08T00:10:00.080Z,0
2017-08-08T00:11:09.001Z,0
2017-08-08T00:12:17.896Z,0
2017-08-08T00:13:26.802Z,0
2017-08-08T00:14:35.710Z,0
2017-08-08T00:15:44.610Z,0
2017-08-08T00:16:53.512Z,0
2017-08-08T00:18:02.410Z,0
2017-08-08T00:19:11.316Z,0
2017-08-08T00:20:20.218Z,0
2017-08-08T00:21:29.129Z,0
2017-08-08T00:22:38.030Z,0
2017-08-08T00:23:46.939Z,0
2017-08-08T00:24:55.837Z,0
2017-08-08T00:26:04.744Z,0
2017-08-08T00:27:13.645Z,0
2017-08-08T00:28:22.870Z,0
2017-08-08T00:29:32.099Z,0
2017-08-08T00:30:41.005Z,0
2017-08-08T00:31:49.905Z,0
2017-08-08T00:32:58.806Z,0
2017-08-08T00:34:08.047Z,0
2017-08-08T00:35:16.950Z,0
2017-08-08T00:36:25.858Z,0
2017-08-08T00:37:34.767Z,0
2017-08-08T00:38:43.674Z,0
2017-08-08T00:39:52.582Z,0
2017-08-08T00:41:01.485Z,0
2017-08-08T00:42:10.387Z,0
2017-08-08T00:43:19.296Z,0
2017-08-08T00:44:28.199Z,0
2017-08-08T00:45:37.100Z,0
2017-08-08T00:46:46.012Z,0
2017-08-08T00:47:54.919Z,0
2017-08-08T00:49:03.827Z,0
2017-08-08T00:50:12.737Z,0
2017-08-08T00:51:21.640Z,0
2017-08-08T00:52:30.546Z,0
2017-08-08T00:53:39.446Z,0
2017-08-08T00:54:48.351Z,0
2017-08-08T00:55:57.262Z,0
2017-08-08T00:57:06.488Z,0
2017-08-08T00:58:15.364Z,0
2017-08-08T00:59:24.216Z,0
2017-08-08T01:00:33.067Z,0
2017-08-08T01:01:41.921Z,0
2017-08-08T01:02:50.773Z,0
2017-08-08T01:03:59.629Z,0
2017-08-08T01:05:08.498Z,0
2017-08-08T01:06:17.356Z,0
2017-08-08T01:07:26.209Z,0
2017-08-08T01:08:35.064Z,0
2017-08-08T01:09:43.923Z,0
2017-08-08T01:10:52.774Z,0
2017-08-08T01:12:01.640Z,0
2017-08-08T01:13:10.493Z,0
2017-08-08T01:14:19.350Z,0
2017-08-08T01:15:28.204Z,0
2017-08-08T01:16:37.055Z,0
2017-08-08T01:17:45.903Z,0
2017-08-08T01:18:54.761Z,0
2017-08-08T01:20:03.612Z,0
2017-08-08T01:21:12.462Z,0
2017-08-08T01:22:21.315Z,0
2017-08-08T01:23:30.172Z,0
2017-08-08T01:24:39.023Z,0
2017-08-08T01:25:47.893Z,0
2017-08-08T01:26:57.387Z,0
2017-08-08T01:28:06.237Z,0
2017-08-08T01:29:15.089Z,0
2017-08-08T01:30:23.944Z,0
2017-08-08T01:31:32.806Z,0
2017-08-08T01:32:41.660Z,0
2017-08-08T01:33:50.517Z,0
2017-08-08T01:34:59.372Z,0
2017-08-08T01:36:08.540Z,0
2017-08-08T01:37:17.395Z,0
2017-08-08T01:38:26.264Z,0
2017-08-08T01:39:35.132Z,0
2017-08-08T01:40:43.986Z,0
2017-08-08T01:41:52.837Z,0
2017-08-08T01:43:01.688Z,0
2017-08-08T01:44:10.564Z,0
2017-08-08T01:45:19.414Z,0
2017-08-08T01:46:28.267Z,0
2017-08-08T01:47:37.125Z,0
2017-08-08T01:48:45.974Z,0
2017-08-08T01:49:54.817Z,0
2017-08-08T01:51:03.674Z,0
2017-08-08T01:52:12.521Z,0
2017-08-08T01:53:22.021Z,0
2017-08-08T01:54:30.869Z,0
2017-08-08T01:55:39.726Z,0
2017-08-08T01:56:48.575Z,0
2017-08-08T01:57:57.423Z,0
2017-08-08T01:59:06.277Z,0
2017-08-08T02:00:15.139Z,0
2017-08-08T02:01:23.987Z,0
2017-08-08T02:02:32.840Z,0
2017-08-08T02:03:42.011Z,0
2017-08-08T02:04:51.174Z,0
2017-08-08T02:06:00.036Z,0
2017-08-08T02:07:08.890Z,0
2017-08-08T02:08:17.735Z,0
2017-08-08T02:09:26.590Z,0
2017-08-08T02:10:35.436Z,0
2017-08-08T02:11:44.286Z,0
2017-08-08T02:12:53.138Z,0
2017-08-08T02:14:01.990Z,0
2017-08-08T02:15:10.836Z,0
2017-08-08T02:16:19.701Z,0
2017-08-08T02:17:28.549Z,0
2017-08-08T02:18:37.400Z,0
2017-08-08T02:19:46.576Z,0
2017-08-08T02:20:55.430Z,0
2017-08-08T02:22:04.283Z,0
2017-08-08T02:23:13.141Z,0
2017-08-08T02:24:21.990Z,0
2017-08-08T02:25:30.852Z,0
2017-08-08T02:26:39.722Z,0
2017-08-08T02:27:48.568Z,0
2017-08-08T02:28:57.432Z,0
2017-08-08T02:30:06.289Z,0
2017-08-08T02:31:15.136Z,0
2017-08-08T02:32:23.988Z,0
2017-08-08T02:33:32.845Z,0
2017-08-08T02:34:41.694Z,0
2017-08-08T02:35:50.539Z,0
2017-08-08T02:36:59.404Z,0
2017-08-08T02:38:08.885Z,0
2017-08-08T02:39:17.743Z,0
2017-08-08T02:40:26.596Z,0
2017-08-08T02:41:35.471Z,0
2017-08-08T02:42:44.328Z,0
2017-08-08T02:43:53.187Z,0
2017-08-08T02:45:02.039Z,0
2017-08-08T02:46:10.902Z,0
2017-08-08T02:47:19.744Z,0
2017-08-08T02:48:28.605Z,0
2017-08-08T02:49:37.458Z,0
2017-08-08T02:50:46.632Z,0
2017-08-08T02:51:55.489Z,0
2017-08-08T02:53:04.362Z,0
2017-08-08T02:54:13.213Z,0
2017-08-08T02:55:22.065Z,0
2017-08-08T02:56:30.923Z,0
2017-08-08T02:57:39.778Z,0
2017-08-08T02:58:49.614Z,0
2017-08-08T02:59:58.789Z,0
2017-08-08T03:01:07.643Z,0
2017-08-08T03:02:16.511Z,0
2017-08-08T03:03:25.367Z,0
2017-08-08T03:04:34.226Z,0
2017-08-08T03:05:43.079Z,0
2017-08-08T03:06:51.937Z,0
2017-08-08T03:08:00.783Z,0
2017-08-08T03:09:09.635Z,0
2017-08-08T03:10:18.491Z,0
2017-08-08T03:11:27.344Z,0
2017-08-08T03:12:36.195Z,0
2017-08-08T03:13:45.050Z,0
2017-08-08T03:14:53.897Z,0
2017-08-08T03:16:02.754Z,0
2017-08-08T03:17:11.605Z,0
2017-08-08T03:18:20.461Z,0
2017-08-08T03:19:29.309Z,0
2017-08-08T03:20:38.162Z,0
2017-08-08T03:21:47.017Z,0
2017-08-08T03:22:55.867Z,0
2017-08-08T03:24:04.717Z,4
2017-08-08T03:25:13.569Z,4
2017-08-08T03:26:22.441Z,4
2017-08-08T03:27:31.290Z,0
2017-08-08T03:28:40.143Z,0
2017-08-08T03:29:48.998Z,4
2017-08-08T03:30:57.849Z,4
2017-08-08T03:32:06.714Z,4
2017-08-08T03:33:15.574Z,4
2017-08-08T03:34:24.428Z,4
2017-08-08T03:35:33.278Z,8
2017-08-08T03:36:42.127Z,4
2017-08-08T03:37:50.979Z,8
2017-08-08T03:39:00.152Z,8
2017-08-08T03:40:09.005Z,8
2017-08-08T03:41:17.857Z,8
2017-08-08T03:42:27.027Z,8
2017-08-08T03:43:36.175Z,12
2017-08-08T03:44:45.035Z,8
2017-08-08T03:45:53.886Z,12
2017-08-08T03:47:02.740Z,12
2017-08-08T03:48:11.599Z,12
2017-08-08T03:49:20.451Z,12
2017-08-08T03:50:29.299Z,16
2017-08-08T03:51:38.167Z,16
2017-08-08T03:52:47.018Z,20
2017-08-08T03:53:56.185Z,20
2017-08-08T03:55:05.036Z,20
2017-08-08T03:56:13.909Z,24
2017-08-08T03:57:22.765Z,24
2017-08-08T03:58:31.612Z,24
2017-08-08T03:59:40.464Z,28
2017-08-08T04:00:49.310Z,28
2017-08-08T04:01:58.166Z,28
2017-08-08T04:03:07.032Z,32
2017-08-08T04:04:15.888Z,32
2017-08-08T04:05:24.743Z,36
2017-08-08T04:06:33.613Z,36
2017-08-08T04:07:42.467Z,36
2017-08-08T04:08:51.337Z,40
2017-08-08T04:10:00.502Z,40
2017-08-08T04:11:09.357Z,44
2017-08-08T04:12:18.208Z,48
2017-08-08T04:13:27.376Z,44
2017-08-08T04:14:36.231Z,48
2017-08-08T04:15:45.082Z,48
2017-08-08T04:16:53.935Z,52
2017-08-08T04:18:02.786Z,52
2017-08-08T04:19:11.953Z,52
2017-08-08T04:20:20.812Z,56
2017-08-08T04:21:29.667Z,52
2017-08-08T04:22:38.517Z,56
2017-08-08T04:23:47.368Z,56
2017-08-08T04:24:56.220Z,60
2017-08-08T04:26:05.065Z,60
2017-08-08T04:27:13.920Z,64
2017-08-08T04:28:22.773Z,64
2017-08-08T04:29:31.632Z,64
2017-08-08T04:30:40.488Z,64
2017-08-08T04:31:49.336Z,68
2017-08-08T04:32:58.185Z,68
2017-08-08T04:34:07.041Z,76
2017-08-08T04:35:15.889Z,76
2017-08-08T04:36:24.739Z,80
2017-08-08T04:37:33.591Z,80
2017-08-08T04:38:42.443Z,84
2017-08-08T04:39:51.618Z,84
2017-08-08T04:41:00.467Z,84
2017-08-08T04:42:09.334Z,88
2017-08-08T04:43:18.183Z,92
2017-08-08T04:44:27.036Z,92
2017-08-08T04:45:35.884Z,96
2017-08-08T04:46:44.745Z,100
2017-08-08T04:47:53.600Z,100
2017-08-08T04:49:02.460Z,108
2017-08-08T04:50:11.311Z,108
2017-08-08T04:51:20.485Z,108
2017-08-08T04:52:29.332Z,108
2017-08-08T04:53:38.185Z,112
2017-08-08T04:54:47.034Z,112
2017-08-08T04:55:56.201Z,116
2017-08-08T04:57:05.047Z,112
2017-08-08T04:58:13.902Z,116
2017-08-08T04:59:22.750Z,116
2017-08-08T05:00:31.600Z,116
2017-08-08T05:01:40.457Z,116
2017-08-08T05:02:49.303Z,120
2017-08-08T05:03:58.152Z,120
2017-08-08T05:05:07.007Z,120
2017-08-08T05:06:15.855Z,120
2017-08-08T05:07:24.707Z,120
2017-08-08T05:08:33.559Z,124
2017-08-08T05:09:42.427Z,124
2017-08-08T05:10:51.286Z,128
2017-08-08T05:12:00.139Z,128
2017-08-08T05:13:09.311Z,128
2017-08-08T05:14:18.169Z,132
2017-08-08T05:15:27.022Z,128
2017-08-08T05:16:35.877Z,128
2017-08-08T05:17:44.727Z,128
2017-08-08T05:18:53.589Z,132
2017-08-08T05:20:02.444Z,136
2017-08-08T05:21:11.614Z,136
2017-08-08T05:22:20.502Z,140
2017-08-08T05:23:29.353Z,144
2017-08-08T05:24:38.201Z,148
2017-08-08T05:25:47.059Z,152
2017-08-08T05:26:55.910Z,152
2017-08-08T05:28:04.758Z,160
2017-08-08T05:29:13.616Z,164
2017-08-08T05:30:22.473Z,168
2017-08-08T05:31:31.327Z,180
2017-08-08T05:32:40.173Z,184
2017-08-08T05:33:49.344Z,200
2017-08-08T05:34:58.193Z,208
2017-08-08T05:36:07.044Z,228
2017-08-08T05:37:15.900Z,248
2017-08-08T05:38:24.751Z,272
2017-08-08T05:39:33.604Z,288
2017-08-08T05:40:42.478Z,296
2017-08-08T05:41:51.327Z,296
2017-08-08T05:43:00.175Z,292
2017-08-08T05:44:09.030Z,284
2017-08-08T05:45:17.888Z,280
2017-08-08T05:46:26.740Z,280
2017-08-08T05:47:35.585Z,276
2017-08-08T05:48:44.440Z,256
2017-08-08T05:49:53.287Z,248
2017-08-08T05:51:02.143Z,240
2017-08-08T05:52:10.998Z,232
2017-08-08T05:53:19.848Z,236
2017-08-08T05:54:28.706Z,220
2017-08-08T05:55:37.561Z,212
2017-08-08T05:56:46.409Z,212
2017-08-08T05:57:55.264Z,204
2017-08-08T05:59:04.124Z,200
2017-08-08T06:00:12.974Z,204
2017-08-08T06:01:21.846Z,196
2017-08-08T06:02:30.701Z,192
2017-08-08T06:03:39.547Z,196
2017-08-08T06:04:48.404Z,200
2017-08-08T06:05:57.571Z,208
2017-08-08T06:07:06.427Z,216
2017-08-08T06:08:15.281Z,224
2017-08-08T06:09:24.133Z,224
2017-08-08T06:10:32.977Z,216
2017-08-08T06:11:41.829Z,216
2017-08-08T06:12:50.682Z,220
2017-08-08T06:13:59.532Z,212
2017-08-08T06:15:08.387Z,208
2017-08-08T06:16:17.243Z,200
2017-08-08T06:17:26.085Z,184
2017-08-08T06:18:34.940Z,180
2017-08-08T06:19:43.786Z,184
2017-08-08T06:20:52.643Z,192
2017-08-08T06:22:01.499Z,196
2017-08-08T06:23:10.349Z,192
2017-08-08T06:24:19.202Z,192
2017-08-08T06:25:28.067Z,188
2017-08-08T06:26:36.915Z,188
2017-08-08T06:27:45.766Z,184
2017-08-08T06:28:54.619Z,184
2017-08-08T06:30:03.474Z,172
2017-08-08T06:31:12.326Z,180
2017-08-08T06:32:21.175Z,184
2017-08-08T06:33:30.029Z,188
2017-08-08T06:34:38.880Z,196
2017-08-08T06:35:47.726Z,204
2017-08-08T06:36:56.583Z,204
2017-08-08T06:38:05.439Z,216
2017-08-08T06:39:14.303Z,216
2017-08-08T06:40:23.154Z,224
2017-08-08T06:41:32.053Z,236
2017-08-08T06:42:41.214Z,244
2017-08-08T06:43:50.070Z,248
2017-08-08T06:44:58.926Z,248
2017-08-08T06:46:07.775Z,248
2017-08-08T06:47:16.632Z,244
2017-08-08T06:48:25.499Z,256
2017-08-08T06:49:34.353Z,260
2017-08-08T06:50:43.201Z,268
2017-08-08T06:51:52.060Z,284
2017-08-08T06:53:00.918Z,284
2017-08-08T06:54:10.080Z,288
2017-08-08T06:55:18.943Z,280
2017-08-08T06:56:27.800Z,264
2017-08-08T06:57:36.652Z,252
2017-08-08T06:58:45.502Z,252
2017-08-08T06:59:54.365Z,240
2017-08-08T07:01:03.214Z,236
2017-08-08T07:02:12.061Z,232
2017-08-08T07:03:20.906Z,228
2017-08-08T07:04:29.760Z,224
2017-08-08T07:05:38.613Z,224
2017-08-08T07:06:47.469Z,220
2017-08-08T07:07:56.630Z,212
2017-08-08T07:09:05.488Z,204
2017-08-08T07:10:14.634Z,196
2017-08-08T07:11:23.486Z,192
2017-08-08T07:12:32.340Z,184
2017-08-08T07:13:41.193Z,184
2017-08-08T07:14:50.044Z,184
2017-08-08T07:15:58.915Z,188
2017-08-08T07:17:07.764Z,184
2017-08-08T07:18:16.623Z,184
2017-08-08T07:19:25.472Z,188
2017-08-08T07:20:34.331Z,184
2017-08-08T07:21:43.182Z,188
2017-08-08T07:22:52.026Z,188
2017-08-08T07:24:00.880Z,184
2017-08-08T07:25:09.729Z,188
2017-08-08T07:26:18.584Z,188
2017-08-08T07:27:27.436Z,192
2017-08-08T07:28:36.283Z,200
2017-08-08T07:29:45.139Z,200
2017-08-08T07:30:54.002Z,196
2017-08-08T07:32:02.862Z,192
2017-08-08T07:33:11.718Z,188
2017-08-08T07:34:20.572Z,188
2017-08-08T07:35:29.424Z,188
2017-08-08T07:36:38.272Z,192
2017-08-08T07:37:47.129Z,200
2017-08-08T07:38:55.985Z,208
2017-08-08T07:40:04.832Z,208
2017-08-08T07:41:13.687Z,216
2017-08-08T07:42:22.864Z,224
2017-08-08T07:43:31.715Z,232
2017-08-08T07:44:40.568Z,232
2017-08-08T07:45:49.419Z,248
2017-08-08T07:46:58.263Z,248
2017-08-08T07:48:07.122Z,252
2017-08-08T07:49:15.985Z,264
2017-08-08T07:50:24.831Z,268
2017-08-08T07:51:33.683Z,268
2017-08-08T07:52:42.566Z,268
2017-08-08T07:53:51.414Z,268
2017-08-08T07:55:00.908Z,280
2017-08-08T07:56:09.749Z,280
2017-08-08T07:57:18.607Z,260
2017-08-08T07:58:27.458Z,244
2017-08-08T07:59:36.313Z,244
2017-08-08T08:00:45.171Z,224
2017-08-08T08:01:54.049Z,228
2017-08-08T08:03:02.899Z,228
2017-08-08T08:04:11.751Z,228
2017-08-08T08:05:20.604Z,232
2017-08-08T08:06:29.456Z,232
2017-08-08T08:07:38.316Z,236
2017-08-08T08:08:47.207Z,240
2017-08-08T08:09:56.055Z,256
2017-08-08T08:11:04.909Z,260
2017-08-08T08:12:13.760Z,252
2017-08-08T08:13:22.626Z,256
2017-08-08T08:14:31.475Z,256
2017-08-08T08:15:40.320Z,260
2017-08-08T08:16:49.173Z,268
2017-08-08T08:17:58.038Z,272
2017-08-08T08:19:06.892Z,272
2017-08-08T08:20:15.749Z,280
2017-08-08T08:21:24.603Z,276
2017-08-08T08:22:33.457Z,280
2017-08-08T08:23:42.310Z,284
2017-08-08T08:24:51.160Z,288
2017-08-08T08:26:00.022Z,284
2017-08-08T08:27:08.874Z,284
2017-08-08T08:28:17.725Z,280
2017-08-08T08:29:26.582Z,276
2017-08-08T08:30:35.440Z,284
2017-08-08T08:31:44.290Z,296
2017-08-08T08:32:53.146Z,312
2017-08-08T08:34:02.000Z,332
2017-08-08T08:35:10.861Z,340
2017-08-08T08:36:19.705Z,340
2017-08-08T08:37:28.548Z,348
2017-08-08T08:38:37.399Z,364
2017-08-08T08:39:46.244Z,376
2017-08-08T08:40:55.094Z,388
2017-08-08T08:42:03.948Z,400
2017-08-08T08:43:12.808Z,408
2017-08-08T08:44:21.979Z,424
2017-08-08T08:45:31.156Z,420
2017-08-08T08:46:40.007Z,444
2017-08-08T08:47:48.864Z,448
2017-08-08T08:48:57.713Z,444
2017-08-08T08:50:06.564Z,428
2017-08-08T08:51:15.415Z,408
2017-08-08T08:52:24.290Z,392
2017-08-08T08:53:33.138Z,360
2017-08-08T08:54:41.991Z,336
2017-08-08T08:55:50.843Z,304
2017-08-08T08:56:59.689Z,288
2017-08-08T08:58:08.544Z,312
2017-08-08T08:59:17.400Z,312
2017-08-08T09:00:26.568Z,312
2017-08-08T09:01:35.417Z,312
2017-08-08T09:02:44.263Z,320
2017-08-08T09:03:53.121Z,312
2017-08-08T09:05:02.001Z,320
2017-08-08T09:06:11.170Z,316
2017-08-08T09:07:20.026Z,300
2017-08-08T09:08:28.878Z,288
2017-08-08T09:09:37.731Z,304
2017-08-08T09:10:46.585Z,308
2017-08-08T09:11:55.434Z,308
2017-08-08T09:13:04.282Z,324
2017-08-08T09:14:13.130Z,336
2017-08-08T09:15:21.998Z,340
2017-08-08T09:16:30.853Z,348
2017-08-08T09:17:39.722Z,352
2017-08-08T09:18:48.569Z,356
2017-08-08T09:19:57.418Z,356
2017-08-08T09:21:06.304Z,356
2017-08-08T09:22:15.157Z,348
2017-08-08T09:23:24.013Z,344
2017-08-08T09:24:32.864Z,336
2017-08-08T09:25:41.732Z,336
2017-08-08T09:26:50.580Z,340
2017-08-08T09:27:59.442Z,340
2017-08-08T09:29:08.309Z,348
2017-08-08T09:30:17.173Z,348
2017-08-08T09:31:26.034Z,348
2017-08-08T09:32:34.876Z,348
2017-08-08T09:33:43.730Z,344
2017-08-08T09:34:52.588Z,344
2017-08-08T09:36:01.446Z,348
2017-08-08T09:37:10.298Z,348
2017-08-08T09:38:19.150Z,356
2017-08-08T09:39:28.317Z,352
2017-08-08T09:40:37.176Z,348
2017-08-08T09:41:46.030Z,348
2017-08-08T09:42:54.886Z,356
2017-08-08T09:44:03.728Z,360
2017-08-08T09:45:12.597Z,376
2017-08-08T09:46:21.445Z,404
2017-08-08T09:47:30.295Z,412
2017-08-08T09:48:39.168Z,424
2017-08-08T09:49:48.338Z,412
2017-08-08T09:50:57.192Z,400
2017-08-08T09:52:06.043Z,404
2017-08-08T09:53:14.901Z,400
2017-08-08T09:54:23.746Z,404
2017-08-08T09:55:32.645Z,404
2017-08-08T09:56:41.501Z,396
2017-08-08T09:57:50.347Z,392
2017-08-08T09:58:59.204Z,388
2017-08-08T10:00:08.371Z,380
2017-08-08T10:01:17.224Z,376
2017-08-08T10:02:26.075Z,376
2017-08-08T10:03:34.925Z,368
2017-08-08T10:04:44.097Z,360
2017-08-08T10:05:52.944Z,364
2017-08-08T10:07:01.798Z,352
2017-08-08T10:08:10.644Z,352
2017-08-08T10:09:19.498Z,348
2017-08-08T10:10:28.359Z,344
2017-08-08T10:11:37.208Z,344
2017-08-08T10:12:46.060Z,352
2017-08-08T10:13:54.911Z,356
2017-08-08T10:15:03.765Z,364
2017-08-08T10:16:12.615Z,356
2017-08-08T10:17:21.467Z,364
2017-08-08T10:18:30.326Z,364
2017-08-08T10:19:39.173Z,360
2017-08-08T10:20:48.027Z,356
2017-08-08T10:21:56.879Z,364
2017-08-08T10:23:05.731Z,376
2017-08-08T10:24:14.580Z,392
2017-08-08T10:25:23.748Z,404
2017-08-08T10:26:32.595Z,404
2017-08-08T10:27:41.451Z,396
2017-08-08T10:28:50.304Z,380
2017-08-08T10:29:59.164Z,368
2017-08-08T10:31:08.019Z,360
2017-08-08T10:32:16.866Z,352
2017-08-08T10:33:25.723Z,356
2017-08-08T10:34:34.570Z,368
2017-08-08T10:35:43.434Z,384
2017-08-08T10:36:52.287Z,400
2017-08-08T10:38:01.143Z,400
2017-08-08T10:39:10.005Z,420
2017-08-08T10:40:18.876Z,440
2017-08-08T10:41:28.042Z,440
2017-08-08T10:42:36.898Z,440
2017-08-08T10:43:45.750Z,448
2017-08-08T10:44:54.616Z,460
2017-08-08T10:46:03.469Z,500
2017-08-08T10:47:12.329Z,524
2017-08-08T10:48:21.179Z,532
2017-08-08T10:49:30.036Z,548
2017-08-08T10:50:38.888Z,556
2017-08-08T10:51:47.739Z,552
2017-08-08T10:52:56.920Z,564
2017-08-08T10:54:05.780Z,572
2017-08-08T10:55:14.949Z,592
2017-08-08T10:56:23.802Z,612
2017-08-08T10:57:32.656Z,640
2017-08-08T10:58:41.520Z,644
2017-08-08T10:59:50.374Z,668
2017-08-08T11:00:59.228Z,680
2017-08-08T11:02:08.082Z,688
2017-08-08T11:03:16.936Z,688
2017-08-08T11:04:25.789Z,696
2017-08-08T11:05:34.645Z,716
2017-08-08T11:06:43.501Z,724
2017-08-08T11:07:52.356Z,748
2017-08-08T11:09:01.200Z,768
2017-08-08T11:10:10.054Z,764
2017-08-08T11:11:18.905Z,752
2017-08-08T11:12:27.756Z,752
2017-08-08T11:13:36.613Z,744
2017-08-08T11:14:45.470Z,748
2017-08-08T11:15:54.322Z,744
2017-08-08T11:17:03.168Z,744
2017-08-08T11:18:12.026Z,748
2017-08-08T11:19:20.895Z,740
2017-08-08T11:20:29.756Z,736
2017-08-08T11:21:38.608Z,728
2017-08-08T11:22:47.453Z,712
2017-08-08T11:23:56.324Z,728
2017-08-08T11:25:05.178Z,724
2017-08-08T11:26:14.040Z,724
2017-08-08T11:27:23.201Z,736
2017-08-08T11:28:32.059Z,748
2017-08-08T11:29:40.914Z,748
2017-08-08T11:30:49.763Z,728
2017-08-08T11:31:58.623Z,716
2017-08-08T11:33:07.479Z,704
2017-08-08T11:34:16.326Z,696
2017-08-08T11:35:25.186Z,688
2017-08-08T11:36:34.035Z,688
2017-08-08T11:37:42.884Z,692
2017-08-08T11:38:51.746Z,692
2017-08-08T11:40:00.608Z,688
2017-08-08T11:41:09.464Z,692
2017-08-08T11:42:18.321Z,704
2017-08-08T11:43:27.172Z,708
2017-08-08T11:44:36.025Z,724
2017-08-08T11:45:44.886Z,732
2017-08-08T11:46:53.739Z,776
2017-08-08T11:48:02.591Z,784
2017-08-08T11:49:11.446Z,780
2017-08-08T11:50:20.294Z,800
2017-08-08T11:51:29.472Z,820
2017-08-08T11:52:38.326Z,824
2017-08-08T11:53:47.182Z,832
2017-08-08T11:54:56.034Z,832
2017-08-08T11:56:04.887Z,808
2017-08-08T11:57:13.737Z,768
2017-08-08T11:58:22.590Z,760
2017-08-08T11:59:31.442Z,700
2017-08-08T12:00:40.292Z,660
2017-08-08T12:01:49.142Z,660
2017-08-08T12:02:57.996Z,620
2017-08-08T12:04:06.851Z,640
2017-08-08T12:05:15.707Z,712
2017-08-08T12:06:24.571Z,756
2017-08-08T12:07:33.425Z,728
2017-08-08T12:08:42.281Z,728
2017-08-08T12:09:51.134Z,708
2017-08-08T12:10:59.992Z,612
2017-08-08T12:12:08.857Z,544
2017-08-08T12:13:17.708Z,592
2017-08-08T12:14:26.560Z,604
2017-08-08T12:15:35.426Z,688
2017-08-08T12:16:44.280Z,692
2017-08-08T12:17:53.129Z,844
2017-08-08T12:19:01.984Z,800
2017-08-08T12:20:11.155Z,632
2017-08-08T12:21:20.031Z,504
2017-08-08T12:22:28.879Z,500
2017-08-08T12:23:37.728Z,496
2017-08-08T12:24:46.585Z,488
2017-08-08T12:25:55.440Z,480
2017-08-08T12:27:04.299Z,484
2017-08-08T12:28:13.155Z,536
2017-08-08T12:29:22.011Z,480
2017-08-08T12:30:30.866Z,572
2017-08-08T12:31:39.722Z,548
2017-08-08T12:32:48.585Z,608
2017-08-08T12:33:57.435Z,668
2017-08-08T12:35:06.290Z,672
2017-08-08T12:36:15.461Z,672
2017-08-08T12:37:24.311Z,520
2017-08-08T12:38:33.163Z,712
2017-08-08T12:39:42.014Z,564
2017-08-08T12:40:50.869Z,516
2017-08-08T12:41:59.719Z,572
2017-08-08T12:43:08.573Z,668
2017-08-08T12:44:17.423Z,712
2017-08-08T12:45:26.272Z,664
2017-08-08T12:46:35.460Z,580
2017-08-08T12:47:44.314Z,600
2017-08-08T12:48:53.182Z,488
2017-08-08T12:50:02.033Z,472
2017-08-08T12:51:10.890Z,716
2017-08-08T12:52:19.747Z,648
2017-08-08T12:53:28.603Z,608
2017-08-08T12:54:37.456Z,568
2017-08-08T12:55:46.308Z,604
2017-08-08T12:56:55.167Z,596
2017-08-08T12:58:04.026Z,604
2017-08-08T12:59:12.882Z,668
2017-08-08T13:00:21.739Z,748
2017-08-08T13:01:30.905Z,756
2017-08-08T13:02:39.761Z,704
2017-08-08T13:03:48.611Z,408
2017-08-08T13:04:57.466Z,664
2017-08-08T13:06:06.316Z,700
2017-08-08T13:07:15.171Z,728
2017-08-08T13:08:24.023Z,484
2017-08-08T13:09:32.871Z,616
2017-08-08T13:10:41.728Z,644
2017-08-08T13:11:50.595Z,788
2017-08-08T13:12:59.461Z,684
2017-08-08T13:14:08.315Z,824
2017-08-08T13:15:17.209Z,832
2017-08-08T13:16:26.059Z,828
2017-08-08T13:17:34.910Z,824
2017-08-08T13:18:43.781Z,804
2017-08-08T13:19:52.638Z,792
2017-08-08T13:21:01.494Z,800
2017-08-08T13:22:10.341Z,820
2017-08-08T13:23:19.197Z,908
2017-08-08T13:24:28.061Z,748
2017-08-08T13:25:36.922Z,648
2017-08-08T13:26:45.777Z,984
2017-08-08T13:27:54.628Z,836
2017-08-08T13:29:03.485Z,788
2017-08-08T13:30:12.346Z,724
2017-08-08T13:31:21.202Z,684
2017-08-08T13:32:30.049Z,676
2017-08-08T13:33:38.911Z,668
2017-08-08T13:34:47.769Z,688
2017-08-08T13:35:56.624Z,688
2017-08-08T13:37:05.483Z,636
2017-08-08T13:38:14.339Z,624
2017-08-08T13:39:23.193Z,600
2017-08-08T13:40:32.045Z,592
2017-08-08T13:41:40.894Z,576
2017-08-08T13:42:49.765Z,556
2017-08-08T13:43:58.952Z,556
2017-08-08T13:45:07.804Z,552
2017-08-08T13:46:16.664Z,536
2017-08-08T13:47:25.840Z,532
2017-08-08T13:48:34.703Z,604
2017-08-08T13:49:43.564Z,788
2017-08-08T13:50:52.413Z,748
2017-08-08T13:52:01.286Z,576
2017-08-08T13:53:10.150Z,464
2017-08-08T13:54:19.000Z,528
2017-08-08T13:55:27.853Z,524
2017-08-08T13:56:36.712Z,372
2017-08-08T13:57:45.564Z,528
2017-08-08T13:58:54.424Z,476
2017-08-08T14:00:03.289Z,496
2017-08-08T14:01:12.140Z,484
2017-08-08T14:02:20.994Z,500
2017-08-08T14:03:29.847Z,540
2017-08-08T14:04:39.027Z,616
2017-08-08T14:05:47.879Z,740
2017-08-08T14:06:56.738Z,876
2017-08-08T14:08:05.589Z,652
2017-08-08T14:09:14.445Z,636
2017-08-08T14:10:23.295Z,572
2017-08-08T14:11:32.149Z,636
2017-08-08T14:12:41.009Z,856
2017-08-08T14:13:49.861Z,840
2017-08-08T14:14:58.709Z,856
2017-08-08T14:16:07.572Z,1004
2017-08-08T14:17:16.424Z,996
2017-08-08T14:18:25.276Z,1088
2017-08-08T14:19:34.130Z,928
2017-08-08T14:20:42.989Z,840
2017-08-08T14:21:51.871Z,772
2017-08-08T14:23:00.729Z,836
2017-08-08T14:24:09.910Z,804
2017-08-08T14:25:18.766Z,748
2017-08-08T14:26:27.624Z,688
2017-08-08T14:27:36.476Z,772
2017-08-08T14:28:45.330Z,664
2017-08-08T14:29:54.188Z,764
2017-08-08T14:31:03.045Z,568
2017-08-08T14:32:11.904Z,628
2017-08-08T14:33:20.752Z,716
2017-08-08T14:34:29.604Z,764
2017-08-08T14:35:38.463Z,864
2017-08-08T14:36:47.635Z,1000
2017-08-08T14:37:56.489Z,1000
2017-08-08T14:39:05.343Z,1060
2017-08-08T14:40:14.227Z,1016
2017-08-08T14:41:23.077Z,1100
2017-08-08T14:42:31.929Z,1284
2017-08-08T14:43:40.785Z,1224
2017-08-08T14:44:49.641Z,1276
2017-08-08T14:45:58.508Z,1288
2017-08-08T14:47:07.360Z,1272
2017-08-08T14:48:16.219Z,1244
2017-08-08T14:49:25.077Z,1208
2017-08-08T14:50:33.935Z,1400
2017-08-08T14:51:42.793Z,1512
2017-08-08T14:52:51.658Z,1428
2017-08-08T14:54:00.518Z,1168
2017-08-08T14:55:09.365Z,1388
2017-08-08T14:56:18.219Z,1652
2017-08-08T14:57:27.086Z,1772
2017-08-08T14:58:35.944Z,1836
2017-08-08T14:59:44.809Z,1716
2017-08-08T15:00:53.664Z,1656
2017-08-08T15:02:02.514Z,480
2017-08-08T15:03:11.371Z,368
2017-08-08T15:04:20.551Z,380
2017-08-08T15:05:29.402Z,428
2017-08-08T15:06:38.572Z,532
2017-08-08T15:07:47.430Z,660
2017-08-08T15:08:56.287Z,864
2017-08-08T15:10:05.171Z,868
2017-08-08T15:11:14.343Z,824
2017-08-08T15:12:23.198Z,868
2017-08-08T15:13:32.055Z,728
2017-08-08T15:14:40.907Z,752
2017-08-08T15:15:49.761Z,780
2017-08-08T15:16:58.620Z,772
2017-08-08T15:18:07.473Z,736
2017-08-08T15:19:16.322Z,700
2017-08-08T15:20:25.191Z,696
2017-08-08T15:21:34.045Z,716
2017-08-08T15:22:42.900Z,744
2017-08-08T15:23:51.795Z,780
2017-08-08T15:25:00.653Z,788
2017-08-08T15:26:09.506Z,796
2017-08-08T15:27:18.375Z,840
2017-08-08T15:28:27.236Z,916
2017-08-08T15:29:36.086Z,1108
2017-08-08T15:30:44.946Z,1320
2017-08-08T15:31:53.799Z,1152
2017-08-08T15:33:02.655Z,1132
2017-08-08T15:34:11.503Z,1228
2017-08-08T15:35:20.366Z,1044
2017-08-08T15:36:29.229Z,1088
2017-08-08T15:37:38.083Z,944
2017-08-08T15:38:46.933Z,1112
2017-08-08T15:39:55.783Z,948
2017-08-08T15:41:04.666Z,972
2017-08-08T15:42:13.524Z,916
2017-08-08T15:43:22.384Z,852
2017-08-08T15:44:31.240Z,888
2017-08-08T15:45:40.106Z,1168
2017-08-08T15:46:48.960Z,1144
2017-08-08T15:47:57.815Z,892
2017-08-08T15:49:06.678Z,836
2017-08-08T15:50:15.535Z,896
2017-08-08T15:51:24.390Z,772
2017-08-08T15:52:33.254Z,812
2017-08-08T15:53:42.106Z,800
2017-08-08T15:54:50.974Z,788
2017-08-08T15:55:59.830Z,796
2017-08-08T15:57:08.683Z,832
2017-08-08T15:58:17.559Z,820
2017-08-08T15:59:26.419Z,776
2017-08-08T16:00:35.268Z,760
2017-08-08T16:01:44.440Z,760
2017-08-08T16:02:53.316Z,752
2017-08-08T16:04:02.178Z,776
2017-08-08T16:05:11.050Z,824